sensor_id;sensor_type;location;lat;lon;timestamp;P1;durP1;ratioP1;P2;durP2;ratioP2
15271;SDS011;7737;51.578;7.268;2022-12-07T00:01:30;26.83;;;22.33;;
15271;SDS011;7737;51.578;7.268;2022-12-07T00:04:01;28.30;;;23.77;;
15271;SDS011;7737;51.578;7.268;2022-12-07T00:06:30;24.70;;;22.03;;
15271;SDS011;7737;51.578;7.268;2022-12-07T00:08:57;25.60;;;22.40;;
15271;SDS011;7737;51.578;7.268;2022-12-07T00:11:23;25.63;;;22.23;;
15271;SDS011;7737;51.578;7.268;2022-12-07T00:13:51;24.40;;;21.00;;
15271;SDS011;7737;51.578;7.268;2022-12-07T00:16:19;22.53;;;20.13;;
15271;SDS011;7737;51.578;7.268;2022-12-07T00:18:46;26.33;;;21.10;;
15271;SDS011;7737;51.578;7.268;2022-12-07T00:21:15;24.13;;;21.33;;
15271;SDS011;7737;51.578;7.268;2022-12-07T00:23:43;22.73;;;19.70;;
15271;SDS011;7737;51.578;7.268;2022-12-07T00:26:12;23.30;;;20.17;;
15271;SDS011;7737;51.578;7.268;2022-12-07T00:28:41;22.17;;;19.47;;
15271;SDS011;7737;51.578;7.268;2022-12-07T00:31:11;23.90;;;19.23;;
15271;SDS011;7737;51.578;7.268;2022-12-07T00:33:39;22.50;;;19.20;;
15271;SDS011;7737;51.578;7.268;2022-12-07T00:36:06;21.83;;;19.07;;
15271;SDS011;7737;51.578;7.268;2022-12-07T00:38:35;24.00;;;20.40;;
15271;SDS011;7737;51.578;7.268;2022-12-07T00:41:03;22.70;;;19.53;;
15271;SDS011;7737;51.578;7.268;2022-12-07T00:43:33;23.90;;;19.07;;
15271;SDS011;7737;51.578;7.268;2022-12-07T00:45:59;23.13;;;19.00;;
15271;SDS011;7737;51.578;7.268;2022-12-07T00:48:26;22.93;;;18.93;;
15271;SDS011;7737;51.578;7.268;2022-12-07T00:50:52;22.20;;;19.47;;
15271;SDS011;7737;51.578;7.268;2022-12-07T00:53:19;20.60;;;18.50;;
15271;SDS011;7737;51.578;7.268;2022-12-07T00:55:47;23.73;;;19.37;;
15271;SDS011;7737;51.578;7.268;2022-12-07T00:58:13;22.10;;;18.73;;
15271;SDS011;7737;51.578;7.268;2022-12-07T01:00:41;20.93;;;18.80;;
15271;SDS011;7737;51.578;7.268;2022-12-07T01:03:09;21.27;;;18.77;;
15271;SDS011;7737;51.578;7.268;2022-12-07T01:05:37;23.37;;;18.60;;
15271;SDS011;7737;51.578;7.268;2022-12-07T01:08:04;22.43;;;18.77;;
15271;SDS011;7737;51.578;7.268;2022-12-07T01:10:31;21.40;;;18.70;;
15271;SDS011;7737;51.578;7.268;2022-12-07T01:12:59;22.43;;;19.57;;
15271;SDS011;7737;51.578;7.268;2022-12-07T01:15:26;21.10;;;18.87;;
15271;SDS011;7737;51.578;7.268;2022-12-07T01:17:53;21.07;;;18.83;;
15271;SDS011;7737;51.578;7.268;2022-12-07T01:20:20;25.30;;;19.57;;
15271;SDS011;7737;51.578;7.268;2022-12-07T01:22:47;22.37;;;19.20;;
15271;SDS011;7737;51.578;7.268;2022-12-07T01:25:13;22.53;;;20.00;;
15271;SDS011;7737;51.578;7.268;2022-12-07T01:27:40;24.20;;;20.53;;
15271;SDS011;7737;51.578;7.268;2022-12-07T01:30:09;24.07;;;20.17;;
15271;SDS011;7737;51.578;7.268;2022-12-07T01:32:37;24.33;;;21.10;;
15271;SDS011;7737;51.578;7.268;2022-12-07T01:35:04;24.33;;;21.83;;
15271;SDS011;7737;51.578;7.268;2022-12-07T01:37:33;25.77;;;22.07;;
15271;SDS011;7737;51.578;7.268;2022-12-07T01:40:00;24.67;;;20.57;;
15271;SDS011;7737;51.578;7.268;2022-12-07T01:42:27;26.93;;;21.87;;
15271;SDS011;7737;51.578;7.268;2022-12-07T01:48:05;24.03;;;21.00;;
15271;SDS011;7737;51.578;7.268;2022-12-07T01:50:35;22.30;;;19.20;;
15271;SDS011;7737;51.578;7.268;2022-12-07T01:53:05;20.97;;;18.63;;
15271;SDS011;7737;51.578;7.268;2022-12-07T01:55:36;20.30;;;18.10;;
15271;SDS011;7737;51.578;7.268;2022-12-07T01:58:06;20.50;;;17.53;;
15271;SDS011;7737;51.578;7.268;2022-12-07T02:00:32;22.57;;;18.20;;
15271;SDS011;7737;51.578;7.268;2022-12-07T02:03:01;22.07;;;19.53;;
15271;SDS011;7737;51.578;7.268;2022-12-07T02:05:31;21.53;;;18.43;;
15271;SDS011;7737;51.578;7.268;2022-12-07T02:07:59;19.50;;;16.77;;
15271;SDS011;7737;51.578;7.268;2022-12-07T02:10:27;24.03;;;18.20;;
15271;SDS011;7737;51.578;7.268;2022-12-07T02:12:55;23.50;;;18.30;;
15271;SDS011;7737;51.578;7.268;2022-12-07T02:15:25;19.83;;;17.40;;
15271;SDS011;7737;51.578;7.268;2022-12-07T02:18:02;21.27;;;18.23;;
15271;SDS011;7737;51.578;7.268;2022-12-07T02:20:36;19.97;;;17.43;;
15271;SDS011;7737;51.578;7.268;2022-12-07T02:23:21;20.50;;;17.53;;
15271;SDS011;7737;51.578;7.268;2022-12-07T02:29:18;19.50;;;17.13;;
15271;SDS011;7737;51.578;7.268;2022-12-07T02:31:50;20.77;;;17.53;;
15271;SDS011;7737;51.578;7.268;2022-12-07T02:34:24;20.30;;;18.10;;
15271;SDS011;7737;51.578;7.268;2022-12-07T02:36:57;20.60;;;17.30;;
15271;SDS011;7737;51.578;7.268;2022-12-07T02:39:31;20.23;;;17.70;;
15271;SDS011;7737;51.578;7.268;2022-12-07T02:42:06;21.50;;;17.17;;
15271;SDS011;7737;51.578;7.268;2022-12-07T02:44:40;20.23;;;18.03;;
15271;SDS011;7737;51.578;7.268;2022-12-07T02:47:09;21.27;;;17.57;;
15271;SDS011;7737;51.578;7.268;2022-12-07T02:49:38;23.37;;;17.80;;
15271;SDS011;7737;51.578;7.268;2022-12-07T02:52:05;20.10;;;18.00;;
15271;SDS011;7737;51.578;7.268;2022-12-07T02:54:32;22.27;;;18.37;;
15271;SDS011;7737;51.578;7.268;2022-12-07T02:57:00;21.97;;;18.40;;
15271;SDS011;7737;51.578;7.268;2022-12-07T02:59:36;20.13;;;16.47;;
15271;SDS011;7737;51.578;7.268;2022-12-07T03:02:17;20.17;;;16.50;;
15271;SDS011;7737;51.578;7.268;2022-12-07T03:04:52;21.70;;;16.33;;
15271;SDS011;7737;51.578;7.268;2022-12-07T03:07:29;22.70;;;17.20;;
15271;SDS011;7737;51.578;7.268;2022-12-07T03:10:08;19.53;;;16.43;;
15271;SDS011;7737;51.578;7.268;2022-12-07T03:12:46;21.17;;;18.37;;
15271;SDS011;7737;51.578;7.268;2022-12-07T03:15:22;20.00;;;17.83;;
15271;SDS011;7737;51.578;7.268;2022-12-07T03:17:54;21.83;;;18.57;;
15271;SDS011;7737;51.578;7.268;2022-12-07T03:20:23;25.33;;;18.87;;
15271;SDS011;7737;51.578;7.268;2022-12-07T03:22:52;21.40;;;18.10;;
15271;SDS011;7737;51.578;7.268;2022-12-07T03:25:20;24.27;;;20.90;;
15271;SDS011;7737;51.578;7.268;2022-12-07T03:27:49;25.77;;;20.30;;
15271;SDS011;7737;51.578;7.268;2022-12-07T03:30:23;21.93;;;19.60;;
15271;SDS011;7737;51.578;7.268;2022-12-07T03:32:53;26.57;;;21.37;;
15271;SDS011;7737;51.578;7.268;2022-12-07T03:35:25;26.70;;;21.93;;
15271;SDS011;7737;51.578;7.268;2022-12-07T03:37:55;23.37;;;21.00;;
15271;SDS011;7737;51.578;7.268;2022-12-07T03:40:27;26.53;;;23.67;;
15271;SDS011;7737;51.578;7.268;2022-12-07T03:42:56;25.37;;;22.47;;
15271;SDS011;7737;51.578;7.268;2022-12-07T03:45:30;28.50;;;23.73;;
15271;SDS011;7737;51.578;7.268;2022-12-07T03:48:04;31.07;;;24.37;;
15271;SDS011;7737;51.578;7.268;2022-12-07T03:50:36;30.27;;;24.40;;
15271;SDS011;7737;51.578;7.268;2022-12-07T03:53:08;29.20;;;23.10;;
15271;SDS011;7737;51.578;7.268;2022-12-07T03:55:39;25.63;;;22.20;;
15271;SDS011;7737;51.578;7.268;2022-12-07T03:58:10;29.57;;;21.57;;
15271;SDS011;7737;51.578;7.268;2022-12-07T04:00:39;28.33;;;21.83;;
15271;SDS011;7737;51.578;7.268;2022-12-07T04:03:07;29.47;;;21.37;;
15271;SDS011;7737;51.578;7.268;2022-12-07T04:05:33;26.63;;;20.80;;
15271;SDS011;7737;51.578;7.268;2022-12-07T04:08:00;24.90;;;20.70;;
15271;SDS011;7737;51.578;7.268;2022-12-07T04:10:27;28.00;;;21.47;;
15271;SDS011;7737;51.578;7.268;2022-12-07T04:12:53;30.27;;;21.33;;
15271;SDS011;7737;51.578;7.268;2022-12-07T04:15:20;29.83;;;21.90;;
15271;SDS011;7737;51.578;7.268;2022-12-07T04:17:48;32.40;;;22.73;;
15271;SDS011;7737;51.578;7.268;2022-12-07T04:20:15;27.40;;;21.80;;
15271;SDS011;7737;51.578;7.268;2022-12-07T04:22:42;29.50;;;22.53;;
15271;SDS011;7737;51.578;7.268;2022-12-07T04:25:09;30.10;;;23.33;;
15271;SDS011;7737;51.578;7.268;2022-12-07T04:27:35;29.63;;;23.30;;
15271;SDS011;7737;51.578;7.268;2022-12-07T04:30:02;29.43;;;23.13;;
15271;SDS011;7737;51.578;7.268;2022-12-07T04:32:29;29.60;;;23.83;;
15271;SDS011;7737;51.578;7.268;2022-12-07T04:34:57;31.23;;;24.27;;
15271;SDS011;7737;51.578;7.268;2022-12-07T04:37:24;30.30;;;22.50;;
15271;SDS011;7737;51.578;7.268;2022-12-07T04:39:50;30.93;;;22.10;;
15271;SDS011;7737;51.578;7.268;2022-12-07T04:42:17;26.97;;;19.97;;
15271;SDS011;7737;51.578;7.268;2022-12-07T04:44:43;29.97;;;20.77;;
15271;SDS011;7737;51.578;7.268;2022-12-07T04:47:10;32.13;;;22.87;;
15271;SDS011;7737;51.578;7.268;2022-12-07T04:49:36;31.63;;;22.10;;
15271;SDS011;7737;51.578;7.268;2022-12-07T04:52:04;28.90;;;21.53;;
15271;SDS011;7737;51.578;7.268;2022-12-07T04:54:31;30.17;;;22.03;;
15271;SDS011;7737;51.578;7.268;2022-12-07T04:56:57;30.47;;;22.30;;
15271;SDS011;7737;51.578;7.268;2022-12-07T04:59:24;29.83;;;21.90;;
15271;SDS011;7737;51.578;7.268;2022-12-07T05:01:50;33.43;;;22.57;;
15271;SDS011;7737;51.578;7.268;2022-12-07T05:04:17;30.80;;;21.53;;
15271;SDS011;7737;51.578;7.268;2022-12-07T05:06:43;29.80;;;21.07;;
15271;SDS011;7737;51.578;7.268;2022-12-07T05:09:11;30.37;;;23.03;;
15271;SDS011;7737;51.578;7.268;2022-12-07T05:11:38;29.37;;;20.03;;
15271;SDS011;7737;51.578;7.268;2022-12-07T05:14:05;29.53;;;21.17;;
15271;SDS011;7737;51.578;7.268;2022-12-07T05:16:34;31.37;;;22.40;;
15271;SDS011;7737;51.578;7.268;2022-12-07T05:19:00;32.50;;;24.50;;
15271;SDS011;7737;51.578;7.268;2022-12-07T05:21:27;30.83;;;23.20;;
15271;SDS011;7737;51.578;7.268;2022-12-07T05:23:54;28.63;;;21.37;;
15271;SDS011;7737;51.578;7.268;2022-12-07T05:26:22;33.57;;;22.17;;
15271;SDS011;7737;51.578;7.268;2022-12-07T05:28:50;29.30;;;21.70;;
15271;SDS011;7737;51.578;7.268;2022-12-07T05:31:17;29.90;;;21.43;;
15271;SDS011;7737;51.578;7.268;2022-12-07T05:33:44;32.97;;;21.60;;
15271;SDS011;7737;51.578;7.268;2022-12-07T05:36:10;28.03;;;20.83;;
15271;SDS011;7737;51.578;7.268;2022-12-07T05:38:37;30.60;;;21.60;;
15271;SDS011;7737;51.578;7.268;2022-12-07T05:41:03;27.83;;;20.87;;
15271;SDS011;7737;51.578;7.268;2022-12-07T05:43:32;28.70;;;20.17;;
15271;SDS011;7737;51.578;7.268;2022-12-07T05:45:59;29.53;;;21.20;;
15271;SDS011;7737;51.578;7.268;2022-12-07T05:48:25;30.37;;;21.43;;
15271;SDS011;7737;51.578;7.268;2022-12-07T05:50:52;29.33;;;20.53;;
15271;SDS011;7737;51.578;7.268;2022-12-07T05:53:19;27.33;;;19.30;;
15271;SDS011;7737;51.578;7.268;2022-12-07T05:55:46;29.47;;;21.03;;
15271;SDS011;7737;51.578;7.268;2022-12-07T05:58:12;29.87;;;19.97;;
15271;SDS011;7737;51.578;7.268;2022-12-07T06:00:58;24.57;;;19.43;;
15271;SDS011;7737;51.578;7.268;2022-12-07T06:03:24;26.83;;;19.93;;
15271;SDS011;7737;51.578;7.268;2022-12-07T06:05:51;28.27;;;20.00;;
15271;SDS011;7737;51.578;7.268;2022-12-07T06:08:18;28.63;;;20.90;;
15271;SDS011;7737;51.578;7.268;2022-12-07T06:10:46;24.17;;;18.57;;
15271;SDS011;7737;51.578;7.268;2022-12-07T06:13:33;23.07;;;17.33;;
15271;SDS011;7737;51.578;7.268;2022-12-07T06:16:00;27.47;;;19.13;;
15271;SDS011;7737;51.578;7.268;2022-12-07T06:18:27;30.00;;;20.83;;
15271;SDS011;7737;51.578;7.268;2022-12-07T06:20:53;29.40;;;20.30;;
15271;SDS011;7737;51.578;7.268;2022-12-07T06:23:19;24.60;;;17.80;;
15271;SDS011;7737;51.578;7.268;2022-12-07T06:25:46;29.37;;;19.87;;
15271;SDS011;7737;51.578;7.268;2022-12-07T06:28:12;22.10;;;18.47;;
15271;SDS011;7737;51.578;7.268;2022-12-07T06:30:39;23.77;;;18.63;;
15271;SDS011;7737;51.578;7.268;2022-12-07T06:33:07;28.90;;;20.13;;
15271;SDS011;7737;51.578;7.268;2022-12-07T06:35:33;26.93;;;19.07;;
15271;SDS011;7737;51.578;7.268;2022-12-07T06:38:00;22.70;;;17.53;;
15271;SDS011;7737;51.578;7.268;2022-12-07T06:40:26;27.47;;;19.60;;
15271;SDS011;7737;51.578;7.268;2022-12-07T06:42:53;25.70;;;18.77;;
15271;SDS011;7737;51.578;7.268;2022-12-07T06:45:19;27.10;;;18.60;;
15271;SDS011;7737;51.578;7.268;2022-12-07T06:47:46;24.13;;;17.10;;
15271;SDS011;7737;51.578;7.268;2022-12-07T06:50:14;25.77;;;18.37;;
15271;SDS011;7737;51.578;7.268;2022-12-07T06:52:40;22.87;;;18.43;;
15271;SDS011;7737;51.578;7.268;2022-12-07T06:55:07;27.50;;;19.57;;
15271;SDS011;7737;51.578;7.268;2022-12-07T06:57:33;27.03;;;18.70;;
15271;SDS011;7737;51.578;7.268;2022-12-07T07:00:00;23.10;;;17.17;;
15271;SDS011;7737;51.578;7.268;2022-12-07T07:02:26;23.37;;;18.10;;
15271;SDS011;7737;51.578;7.268;2022-12-07T07:04:53;23.30;;;18.03;;
15271;SDS011;7737;51.578;7.268;2022-12-07T07:07:21;24.60;;;17.50;;
15271;SDS011;7737;51.578;7.268;2022-12-07T07:09:47;25.87;;;18.67;;
15271;SDS011;7737;51.578;7.268;2022-12-07T07:12:14;27.27;;;18.40;;
15271;SDS011;7737;51.578;7.268;2022-12-07T07:14:40;23.70;;;17.93;;
15271;SDS011;7737;51.578;7.268;2022-12-07T07:17:08;26.53;;;18.13;;
15271;SDS011;7737;51.578;7.268;2022-12-07T07:19:34;28.80;;;18.27;;
15271;SDS011;7737;51.578;7.268;2022-12-07T07:22:02;21.60;;;16.90;;
15271;SDS011;7737;51.578;7.268;2022-12-07T07:24:30;25.33;;;16.67;;
15271;SDS011;7737;51.578;7.268;2022-12-07T07:26:57;25.33;;;17.13;;
15271;SDS011;7737;51.578;7.268;2022-12-07T07:29:23;26.83;;;17.37;;
15271;SDS011;7737;51.578;7.268;2022-12-07T07:31:50;26.57;;;21.80;;
15271;SDS011;7737;51.578;7.268;2022-12-07T07:34:16;21.60;;;18.60;;
15271;SDS011;7737;51.578;7.268;2022-12-07T07:36:43;25.63;;;16.90;;
15271;SDS011;7737;51.578;7.268;2022-12-07T07:39:09;21.10;;;15.83;;
15271;SDS011;7737;51.578;7.268;2022-12-07T07:41:39;24.43;;;16.97;;
15271;SDS011;7737;51.578;7.268;2022-12-07T07:44:05;21.07;;;16.43;;
15271;SDS011;7737;51.578;7.268;2022-12-07T07:46:32;24.03;;;16.13;;
15271;SDS011;7737;51.578;7.268;2022-12-07T07:48:58;25.90;;;15.57;;
15271;SDS011;7737;51.578;7.268;2022-12-07T07:51:25;20.63;;;14.90;;
15271;SDS011;7737;51.578;7.268;2022-12-07T07:53:52;25.83;;;16.03;;
15271;SDS011;7737;51.578;7.268;2022-12-07T07:56:18;23.60;;;15.10;;
15271;SDS011;7737;51.578;7.268;2022-12-07T07:58:46;24.33;;;14.37;;
15271;SDS011;7737;51.578;7.268;2022-12-07T08:01:12;23.00;;;14.70;;
15271;SDS011;7737;51.578;7.268;2022-12-07T08:03:40;22.13;;;14.83;;
15271;SDS011;7737;51.578;7.268;2022-12-07T08:06:06;20.20;;;14.37;;
15271;SDS011;7737;51.578;7.268;2022-12-07T08:08:33;20.17;;;15.43;;
15271;SDS011;7737;51.578;7.268;2022-12-07T08:10:59;20.60;;;14.67;;
15271;SDS011;7737;51.578;7.268;2022-12-07T08:13:26;20.27;;;14.77;;
15271;SDS011;7737;51.578;7.268;2022-12-07T08:15:54;19.30;;;13.90;;
15271;SDS011;7737;51.578;7.268;2022-12-07T08:18:21;21.47;;;14.03;;
15271;SDS011;7737;51.578;7.268;2022-12-07T08:20:47;24.53;;;15.17;;
15271;SDS011;7737;51.578;7.268;2022-12-07T08:23:14;22.37;;;14.67;;
15271;SDS011;7737;51.578;7.268;2022-12-07T08:25:40;19.93;;;14.67;;
15271;SDS011;7737;51.578;7.268;2022-12-07T08:28:07;23.30;;;15.53;;
15271;SDS011;7737;51.578;7.268;2022-12-07T08:30:33;20.97;;;14.03;;
15271;SDS011;7737;51.578;7.268;2022-12-07T08:33:01;22.90;;;14.57;;
15271;SDS011;7737;51.578;7.268;2022-12-07T08:35:28;20.83;;;14.43;;
15271;SDS011;7737;51.578;7.268;2022-12-07T08:37:54;21.50;;;14.33;;
15271;SDS011;7737;51.578;7.268;2022-12-07T08:40:22;20.30;;;13.97;;
15271;SDS011;7737;51.578;7.268;2022-12-07T08:42:49;20.80;;;12.93;;
15271;SDS011;7737;51.578;7.268;2022-12-07T08:45:16;19.33;;;13.40;;
15271;SDS011;7737;51.578;7.268;2022-12-07T08:47:45;20.43;;;13.17;;
15271;SDS011;7737;51.578;7.268;2022-12-07T08:50:17;18.57;;;12.73;;
15271;SDS011;7737;51.578;7.268;2022-12-07T08:52:44;22.30;;;13.67;;
15271;SDS011;7737;51.578;7.268;2022-12-07T08:55:13;20.07;;;12.93;;
15271;SDS011;7737;51.578;7.268;2022-12-07T08:57:40;21.83;;;12.90;;
15271;SDS011;7737;51.578;7.268;2022-12-07T09:00:08;26.60;;;19.30;;
15271;SDS011;7737;51.578;7.268;2022-12-07T09:02:35;18.53;;;12.50;;
15271;SDS011;7737;51.578;7.268;2022-12-07T09:05:02;16.53;;;12.10;;
15271;SDS011;7737;51.578;7.268;2022-12-07T09:07:30;16.57;;;12.07;;
15271;SDS011;7737;51.578;7.268;2022-12-07T09:09:59;16.47;;;11.30;;
15271;SDS011;7737;51.578;7.268;2022-12-07T09:12:26;15.50;;;12.33;;
15271;SDS011;7737;51.578;7.268;2022-12-07T09:14:52;16.50;;;11.63;;
15271;SDS011;7737;51.578;7.268;2022-12-07T09:17:19;17.70;;;11.47;;
15271;SDS011;7737;51.578;7.268;2022-12-07T09:19:45;17.00;;;11.70;;
15271;SDS011;7737;51.578;7.268;2022-12-07T09:22:12;18.83;;;12.20;;
15271;SDS011;7737;51.578;7.268;2022-12-07T09:24:40;16.70;;;11.73;;
15271;SDS011;7737;51.578;7.268;2022-12-07T09:27:06;16.50;;;11.97;;
15271;SDS011;7737;51.578;7.268;2022-12-07T09:29:33;18.23;;;11.43;;
15271;SDS011;7737;51.578;7.268;2022-12-07T09:31:59;17.50;;;11.03;;
15271;SDS011;7737;51.578;7.268;2022-12-07T09:34:26;19.43;;;11.10;;
15271;SDS011;7737;51.578;7.268;2022-12-07T09:36:52;14.43;;;10.10;;
15271;SDS011;7737;51.578;7.268;2022-12-07T09:39:19;14.30;;;9.93;;
15271;SDS011;7737;51.578;7.268;2022-12-07T09:41:47;14.23;;;9.23;;
15271;SDS011;7737;51.578;7.268;2022-12-07T09:44:14;16.57;;;10.20;;
15271;SDS011;7737;51.578;7.268;2022-12-07T09:46:46;14.87;;;9.37;;
15271;SDS011;7737;51.578;7.268;2022-12-07T09:49:14;15.17;;;9.07;;
15271;SDS011;7737;51.578;7.268;2022-12-07T09:51:43;14.00;;;9.50;;
15271;SDS011;7737;51.578;7.268;2022-12-07T09:54:11;14.47;;;8.83;;
15271;SDS011;7737;51.578;7.268;2022-12-07T09:56:40;13.30;;;8.60;;
15271;SDS011;7737;51.578;7.268;2022-12-07T09:59:12;15.07;;;8.60;;
15271;SDS011;7737;51.578;7.268;2022-12-07T10:01:42;12.70;;;8.40;;
15271;SDS011;7737;51.578;7.268;2022-12-07T10:04:11;13.57;;;8.27;;
15271;SDS011;7737;51.578;7.268;2022-12-07T10:06:39;11.97;;;8.07;;
15271;SDS011;7737;51.578;7.268;2022-12-07T10:09:08;12.63;;;7.80;;
15271;SDS011;7737;51.578;7.268;2022-12-07T10:14:26;9.67;;;7.20;;
15271;SDS011;7737;51.578;7.268;2022-12-07T10:16:54;11.57;;;6.50;;
15271;SDS011;7737;51.578;7.268;2022-12-07T10:19:27;11.03;;;7.20;;
15271;SDS011;7737;51.578;7.268;2022-12-07T10:22:03;11.87;;;6.87;;
15271;SDS011;7737;51.578;7.268;2022-12-07T10:24:35;10.23;;;6.03;;
15271;SDS011;7737;51.578;7.268;2022-12-07T10:27:02;9.43;;;6.00;;
15271;SDS011;7737;51.578;7.268;2022-12-07T10:29:31;12.17;;;5.73;;
15271;SDS011;7737;51.578;7.268;2022-12-07T10:32:00;11.90;;;6.23;;
15271;SDS011;7737;51.578;7.268;2022-12-07T10:34:29;11.83;;;6.40;;
15271;SDS011;7737;51.578;7.268;2022-12-07T10:37:11;9.90;;;6.30;;
15271;SDS011;7737;51.578;7.268;2022-12-07T10:39:42;10.57;;;6.37;;
15271;SDS011;7737;51.578;7.268;2022-12-07T10:42:16;12.67;;;6.27;;
15271;SDS011;7737;51.578;7.268;2022-12-07T10:44:45;13.10;;;5.90;;
15271;SDS011;7737;51.578;7.268;2022-12-07T10:47:29;7.37;;;5.77;;
15271;SDS011;7737;51.578;7.268;2022-12-07T10:50:14;9.70;;;5.90;;
15271;SDS011;7737;51.578;7.268;2022-12-07T10:52:54;11.73;;;5.80;;
15271;SDS011;7737;51.578;7.268;2022-12-07T10:55:33;10.00;;;5.43;;
15271;SDS011;7737;51.578;7.268;2022-12-07T10:58:16;10.13;;;5.77;;
15271;SDS011;7737;51.578;7.268;2022-12-07T11:00:55;9.80;;;5.63;;
15271;SDS011;7737;51.578;7.268;2022-12-07T11:03:34;10.13;;;5.83;;
15271;SDS011;7737;51.578;7.268;2022-12-07T11:06:14;11.30;;;6.17;;
15271;SDS011;7737;51.578;7.268;2022-12-07T11:08:56;10.53;;;5.80;;
15271;SDS011;7737;51.578;7.268;2022-12-07T11:11:30;8.97;;;5.60;;
15271;SDS011;7737;51.578;7.268;2022-12-07T11:14:03;10.57;;;6.00;;
15271;SDS011;7737;51.578;7.268;2022-12-07T11:16:42;10.27;;;5.60;;
15271;SDS011;7737;51.578;7.268;2022-12-07T11:22:18;7.57;;;5.63;;
15271;SDS011;7737;51.578;7.268;2022-12-07T11:24:50;10.73;;;5.77;;
15271;SDS011;7737;51.578;7.268;2022-12-07T11:27:24;9.57;;;6.27;;
15271;SDS011;7737;51.578;7.268;2022-12-07T11:30:03;14.67;;;7.03;;
15271;SDS011;7737;51.578;7.268;2022-12-07T11:32:43;16.30;;;6.50;;
15271;SDS011;7737;51.578;7.268;2022-12-07T11:35:20;9.37;;;5.50;;
15271;SDS011;7737;51.578;7.268;2022-12-07T11:37:54;11.33;;;6.80;;
15271;SDS011;7737;51.578;7.268;2022-12-07T11:40:26;9.80;;;5.60;;
15271;SDS011;7737;51.578;7.268;2022-12-07T11:42:59;10.53;;;6.43;;
15271;SDS011;7737;51.578;7.268;2022-12-07T11:45:30;10.63;;;6.20;;
15271;SDS011;7737;51.578;7.268;2022-12-07T11:48:01;12.77;;;6.00;;
15271;SDS011;7737;51.578;7.268;2022-12-07T11:50:33;11.27;;;5.67;;
15271;SDS011;7737;51.578;7.268;2022-12-07T11:53:03;11.67;;;5.80;;
15271;SDS011;7737;51.578;7.268;2022-12-07T11:55:40;10.40;;;5.17;;
15271;SDS011;7737;51.578;7.268;2022-12-07T11:58:20;9.17;;;5.83;;
15271;SDS011;7737;51.578;7.268;2022-12-07T12:01:04;8.10;;;5.83;;
15271;SDS011;7737;51.578;7.268;2022-12-07T12:03:42;9.43;;;5.27;;
15271;SDS011;7737;51.578;7.268;2022-12-07T12:06:11;9.87;;;5.60;;
15271;SDS011;7737;51.578;7.268;2022-12-07T12:08:39;10.40;;;5.87;;
15271;SDS011;7737;51.578;7.268;2022-12-07T12:11:13;10.10;;;5.40;;
15271;SDS011;7737;51.578;7.268;2022-12-07T12:16:59;10.40;;;4.77;;
15271;SDS011;7737;51.578;7.268;2022-12-07T12:19:43;11.07;;;4.23;;
15271;SDS011;7737;51.578;7.268;2022-12-07T12:22:28;9.23;;;3.97;;
15271;SDS011;7737;51.578;7.268;2022-12-07T12:25:02;6.57;;;3.80;;
15271;SDS011;7737;51.578;7.268;2022-12-07T12:27:31;7.90;;;3.90;;
15271;SDS011;7737;51.578;7.268;2022-12-07T12:30:01;11.40;;;3.33;;
15271;SDS011;7737;51.578;7.268;2022-12-07T12:32:32;8.00;;;3.07;;
15271;SDS011;7737;51.578;7.268;2022-12-07T12:37:56;6.83;;;3.00;;
15271;SDS011;7737;51.578;7.268;2022-12-07T12:40:53;8.03;;;3.13;;
15271;SDS011;7737;51.578;7.268;2022-12-07T12:49:30;8.67;;;3.40;;
15271;SDS011;7737;51.578;7.268;2022-12-07T12:52:01;8.10;;;3.43;;
15271;SDS011;7737;51.578;7.268;2022-12-07T12:55:12;6.60;;;3.10;;
15271;SDS011;7737;51.578;7.268;2022-12-07T12:57:43;8.43;;;3.03;;
15271;SDS011;7737;51.578;7.268;2022-12-07T13:00:15;7.57;;;3.10;;
15271;SDS011;7737;51.578;7.268;2022-12-07T13:02:47;6.17;;;2.47;;
15271;SDS011;7737;51.578;7.268;2022-12-07T13:05:17;6.90;;;2.60;;
15271;SDS011;7737;51.578;7.268;2022-12-07T13:07:57;5.73;;;2.70;;
15271;SDS011;7737;51.578;7.268;2022-12-07T13:10:37;9.33;;;2.63;;
15271;SDS011;7737;51.578;7.268;2022-12-07T13:25:09;7.80;;;2.40;;
15271;SDS011;7737;51.578;7.268;2022-12-07T13:27:37;7.87;;;2.40;;
15271;SDS011;7737;51.578;7.268;2022-12-07T13:30:09;5.70;;;2.30;;
15271;SDS011;7737;51.578;7.268;2022-12-07T13:32:41;9.07;;;2.83;;
15271;SDS011;7737;51.578;7.268;2022-12-07T13:35:27;7.23;;;2.47;;
15271;SDS011;7737;51.578;7.268;2022-12-07T13:37:55;10.10;;;2.57;;
15271;SDS011;7737;51.578;7.268;2022-12-07T13:40:24;10.30;;;2.60;;
15271;SDS011;7737;51.578;7.268;2022-12-07T13:42:56;8.43;;;2.63;;
15271;SDS011;7737;51.578;7.268;2022-12-07T13:45:25;6.90;;;3.00;;
15271;SDS011;7737;51.578;7.268;2022-12-07T13:48:13;8.33;;;2.70;;
15271;SDS011;7737;51.578;7.268;2022-12-07T13:50:52;5.40;;;2.30;;
15271;SDS011;7737;51.578;7.268;2022-12-07T13:53:20;6.90;;;2.63;;
15271;SDS011;7737;51.578;7.268;2022-12-07T13:55:48;7.23;;;2.40;;
15271;SDS011;7737;51.578;7.268;2022-12-07T13:58:14;6.90;;;2.50;;
15271;SDS011;7737;51.578;7.268;2022-12-07T14:00:41;7.30;;;2.67;;
15271;SDS011;7737;51.578;7.268;2022-12-07T14:03:28;6.30;;;2.10;;
15271;SDS011;7737;51.578;7.268;2022-12-07T14:06:05;8.17;;;2.40;;
15271;SDS011;7737;51.578;7.268;2022-12-07T14:08:38;5.17;;;1.97;;
15271;SDS011;7737;51.578;7.268;2022-12-07T14:11:06;8.87;;;2.57;;
15271;SDS011;7737;51.578;7.268;2022-12-07T14:13:37;8.40;;;3.07;;
15271;SDS011;7737;51.578;7.268;2022-12-07T14:16:19;6.03;;;2.77;;
15271;SDS011;7737;51.578;7.268;2022-12-07T14:18:51;5.97;;;2.33;;
15271;SDS011;7737;51.578;7.268;2022-12-07T14:21:19;4.47;;;2.37;;
15271;SDS011;7737;51.578;7.268;2022-12-07T14:24:01;7.73;;;2.63;;
15271;SDS011;7737;51.578;7.268;2022-12-07T14:26:35;4.13;;;1.80;;
15271;SDS011;7737;51.578;7.268;2022-12-07T14:29:18;6.33;;;2.70;;
15271;SDS011;7737;51.578;7.268;2022-12-07T14:31:46;4.37;;;2.57;;
15271;SDS011;7737;51.578;7.268;2022-12-07T14:34:12;5.80;;;2.40;;
15271;SDS011;7737;51.578;7.268;2022-12-07T14:36:39;8.37;;;3.33;;
15271;SDS011;7737;51.578;7.268;2022-12-07T14:39:06;5.70;;;3.30;;
15271;SDS011;7737;51.578;7.268;2022-12-07T14:41:32;6.60;;;2.77;;
15271;SDS011;7737;51.578;7.268;2022-12-07T14:44:19;7.73;;;4.07;;
15271;SDS011;7737;51.578;7.268;2022-12-07T14:46:47;9.40;;;4.03;;
15271;SDS011;7737;51.578;7.268;2022-12-07T14:49:14;7.60;;;3.07;;
15271;SDS011;7737;51.578;7.268;2022-12-07T14:51:41;6.63;;;3.13;;
15271;SDS011;7737;51.578;7.268;2022-12-07T14:54:12;8.70;;;3.30;;
15271;SDS011;7737;51.578;7.268;2022-12-07T14:56:41;11.70;;;3.70;;
15271;SDS011;7737;51.578;7.268;2022-12-07T14:59:09;6.80;;;3.30;;
15271;SDS011;7737;51.578;7.268;2022-12-07T15:01:37;7.03;;;3.50;;
15271;SDS011;7737;51.578;7.268;2022-12-07T15:04:04;8.97;;;4.43;;
15271;SDS011;7737;51.578;7.268;2022-12-07T15:06:30;8.27;;;4.80;;
15271;SDS011;7737;51.578;7.268;2022-12-07T15:08:57;10.57;;;4.13;;
15271;SDS011;7737;51.578;7.268;2022-12-07T15:11:23;10.77;;;3.83;;
15271;SDS011;7737;51.578;7.268;2022-12-07T15:13:50;11.07;;;4.23;;
15271;SDS011;7737;51.578;7.268;2022-12-07T15:16:38;7.23;;;4.00;;
15271;SDS011;7737;51.578;7.268;2022-12-07T15:19:08;6.60;;;3.90;;
15271;SDS011;7737;51.578;7.268;2022-12-07T15:21:37;9.83;;;4.37;;
15271;SDS011;7737;51.578;7.268;2022-12-07T15:24:04;6.10;;;3.80;;
15271;SDS011;7737;51.578;7.268;2022-12-07T15:26:31;10.87;;;4.53;;
15271;SDS011;7737;51.578;7.268;2022-12-07T15:28:58;6.67;;;4.37;;
15271;SDS011;7737;51.578;7.268;2022-12-07T15:31:24;8.87;;;4.47;;
15271;SDS011;7737;51.578;7.268;2022-12-07T15:33:52;8.60;;;5.70;;
15271;SDS011;7737;51.578;7.268;2022-12-07T15:36:20;12.17;;;5.63;;